createdAt,value
2019-02-22T00:01:58.096Z,8.60
2019-02-22T00:04:25.486Z,7.77
2019-02-22T00:06:52.829Z,8.10
2019-02-22T00:09:20.196Z,7.37
2019-02-22T00:11:47.553Z,8.30
2019-02-22T00:14:14.872Z,8.27
2019-02-22T00:16:42.193Z,8.57
2019-02-22T00:19:09.574Z,8.43
2019-02-22T00:21:36.933Z,9.07
2019-02-22T00:24:04.237Z,8.87
2019-02-22T00:26:31.613Z,6.53
2019-02-22T00:28:58.991Z,8.13
2019-02-22T00:31:26.361Z,8.20
2019-02-22T00:33:53.697Z,8.33
2019-02-22T00:36:21.140Z,7.87
2019-02-22T00:38:48.534Z,7.60
2019-02-22T00:41:15.873Z,7.53
2019-02-22T00:43:43.193Z,8.33
2019-02-22T00:46:10.593Z,8.97
2019-02-22T00:48:37.941Z,8.20
2019-02-22T00:51:05.274Z,7.47
2019-02-22T00:53:32.628Z,8.80
2019-02-22T00:55:59.969Z,9.80
2019-02-22T00:58:27.306Z,9.83
2019-02-22T01:00:54.693Z,9.43
2019-02-22T01:03:22.035Z,9.10
2019-02-22T01:05:49.433Z,8.80
2019-02-22T01:08:16.815Z,8.40
2019-02-22T01:10:44.187Z,9.50
2019-02-22T01:13:11.506Z,9.40
2019-02-22T01:15:38.894Z,9.03
2019-02-22T01:18:06.233Z,9.97
2019-02-22T01:20:34.223Z,9.60
2019-02-22T01:23:01.576Z,9.77
2019-02-22T01:25:28.934Z,11.33
2019-02-22T01:27:56.333Z,11.67
2019-02-22T01:30:23.684Z,11.30
2019-02-22T01:32:51.058Z,11.23
2019-02-22T01:35:18.407Z,10.53
2019-02-22T01:37:45.777Z,10.50
2019-02-22T01:40:13.173Z,10.90
2019-02-22T01:42:40.530Z,10.20
2019-02-22T01:45:07.857Z,10.10
2019-02-22T01:47:35.212Z,10.60
2019-02-22T01:50:02.570Z,10.70
2019-02-22T01:52:29.927Z,10.93
2019-02-22T01:54:57.294Z,10.10
2019-02-22T01:57:24.622Z,10.80
2019-02-22T01:59:51.966Z,10.23
2019-02-22T02:02:19.295Z,10.13
2019-02-22T02:04:46.632Z,10.10
2019-02-22T02:07:14.004Z,10.73
2019-02-22T02:09:41.353Z,11.13
2019-02-22T02:12:08.694Z,11.20
2019-02-22T02:14:36.093Z,11.53
2019-02-22T02:17:03.614Z,12.37
2019-02-22T02:19:30.948Z,12.87
2019-02-22T02:21:58.354Z,11.80
2019-02-22T02:24:25.677Z,12.80
2019-02-22T02:26:53.014Z,12.73
2019-02-22T02:29:20.393Z,12.33
2019-02-22T02:31:47.752Z,11.90
2019-02-22T02:34:15.085Z,11.93
2019-02-22T02:36:42.421Z,12.90
2019-02-22T02:39:09.900Z,12.63
2019-02-22T02:41:37.333Z,12.50
2019-02-22T02:44:04.683Z,12.67
2019-02-22T02:46:32.013Z,12.47
2019-02-22T02:48:59.351Z,12.00
2019-02-22T02:51:26.696Z,11.83
2019-02-22T02:53:54.064Z,12.43
2019-02-22T02:56:21.435Z,12.73
2019-02-22T02:58:48.813Z,12.97
2019-02-22T03:01:16.243Z,12.53
2019-02-22T03:03:43.575Z,12.83
2019-02-22T03:06:48.632Z,12.40
2019-02-22T03:09:15.933Z,11.93
2019-02-22T03:11:43.276Z,12.90
2019-02-22T03:14:10.640Z,13.60
2019-02-22T03:16:37.981Z,14.20
2019-02-22T03:19:05.337Z,15.10
2019-02-22T03:21:32.725Z,14.67
2019-02-22T03:24:00.118Z,15.10
2019-02-22T03:26:27.434Z,15.47
2019-02-22T03:28:54.813Z,15.00
2019-02-22T03:31:22.354Z,16.07
2019-02-22T03:33:49.739Z,16.97
2019-02-22T03:36:17.114Z,16.63
2019-02-22T03:38:44.413Z,15.97
2019-02-22T03:41:11.773Z,16.13
2019-02-22T03:43:39.133Z,16.30
2019-02-22T03:46:06.434Z,16.47
2019-02-22T03:48:33.834Z,16.73
2019-02-22T03:51:01.172Z,15.60
2019-02-22T03:53:35.641Z,15.63
2019-02-22T03:56:02.994Z,14.83
2019-02-22T03:58:30.458Z,15.47
2019-02-22T04:00:57.814Z,16.13
2019-02-22T04:03:25.171Z,16.93
2019-02-22T04:05:52.537Z,15.97
2019-02-22T04:08:19.942Z,16.43
2019-02-22T04:10:47.257Z,16.87
2019-02-22T04:13:14.594Z,16.77
2019-02-22T04:15:42.074Z,17.23
2019-02-22T04:18:09.461Z,17.80
2019-02-22T04:20:36.837Z,17.80
2019-02-22T04:23:04.195Z,16.50
2019-02-22T04:25:31.577Z,16.47
2019-02-22T04:27:58.954Z,18.77
2019-02-22T04:30:26.263Z,19.50
2019-02-22T04:32:53.659Z,18.87
2019-02-22T04:35:21.055Z,19.67
2019-02-22T04:37:48.424Z,19.90
2019-02-22T04:40:15.773Z,19.67
2019-02-22T04:42:43.112Z,20.13
2019-02-22T04:45:10.503Z,19.93
2019-02-22T04:47:37.854Z,20.00
2019-02-22T04:50:06.146Z,20.87
2019-02-22T04:52:33.552Z,20.30
2019-02-22T04:55:00.883Z,19.20
2019-02-22T04:57:31.433Z,20.73
2019-02-22T04:59:58.775Z,20.73
2019-02-22T05:02:26.133Z,22.33
2019-02-22T05:04:53.479Z,19.57
2019-02-22T05:07:20.853Z,19.77
2019-02-22T05:09:48.263Z,21.10
2019-02-22T05:12:15.594Z,21.13
2019-02-22T05:14:42.996Z,22.30
2019-02-22T05:17:10.365Z,23.60
2019-02-22T05:19:37.674Z,24.53
2019-02-22T05:22:05.114Z,24.90
2019-02-22T05:24:32.465Z,25.53
2019-02-22T05:26:59.852Z,27.03
2019-02-22T05:29:27.174Z,26.87
2019-02-22T05:31:54.535Z,27.50
2019-02-22T05:34:21.891Z,26.10
2019-02-22T05:36:49.232Z,28.63
2019-02-22T05:39:19.386Z,24.63
2019-02-22T05:41:45.838Z,24.67
2019-02-22T05:44:13.173Z,25.87
2019-02-22T05:46:40.748Z,26.10
2019-02-22T05:49:08.076Z,25.53
2019-02-22T05:51:35.414Z,25.90
2019-02-22T05:54:02.789Z,24.60
2019-02-22T05:56:30.186Z,23.40
2019-02-22T05:58:57.557Z,25.67
2019-02-22T06:01:25.014Z,25.93
2019-02-22T06:03:52.374Z,21.43
2019-02-22T06:06:19.713Z,24.77
2019-02-22T06:08:47.359Z,23.10
2019-02-22T06:11:15.106Z,25.67
2019-02-22T06:13:42.514Z,24.13
2019-02-22T06:16:09.860Z,24.03
2019-02-22T06:18:37.199Z,23.30
2019-02-22T06:21:04.668Z,25.13
2019-02-22T06:23:32.056Z,23.50
2019-02-22T06:25:59.480Z,25.80
2019-02-22T06:28:27.007Z,25.50
2019-02-22T06:30:54.547Z,24.63
2019-02-22T06:33:21.954Z,25.63
2019-02-22T06:35:49.320Z,25.47
2019-02-22T06:38:16.654Z,24.17
2019-02-22T06:40:44.015Z,23.03
2019-02-22T06:43:11.393Z,24.33
2019-02-22T06:45:38.786Z,24.37
2019-02-22T06:48:06.101Z,25.50
2019-02-22T06:50:33.989Z,25.70
2019-02-22T06:53:01.593Z,24.77
2019-02-22T06:55:30.064Z,25.23
2019-02-22T06:57:57.414Z,24.67
2019-02-22T07:00:24.794Z,24.67
2019-02-22T07:02:52.807Z,24.93
2019-02-22T07:05:20.194Z,25.53
2019-02-22T07:07:47.514Z,29.03
2019-02-22T07:10:14.876Z,26.93
2019-02-22T07:12:56.193Z,26.63
2019-02-22T07:15:14.823Z,25.43
2019-02-22T07:17:42.153Z,27.07
2019-02-22T07:20:10.233Z,25.53
2019-02-22T07:22:37.554Z,25.97
2019-02-22T07:25:06.094Z,27.10
2019-02-22T07:27:33.476Z,24.30
2019-02-22T07:30:00.793Z,26.33
2019-02-22T07:32:28.218Z,26.17
2019-02-22T07:34:55.559Z,24.63
2019-02-22T07:37:22.874Z,25.53
2019-02-22T07:39:50.233Z,25.37
2019-02-22T07:42:17.565Z,24.53
2019-02-22T07:44:44.955Z,23.50
2019-02-22T07:47:12.294Z,23.00
2019-02-22T07:49:39.736Z,23.93
2019-02-22T07:52:07.130Z,22.17
2019-02-22T07:54:34.473Z,25.20
2019-02-22T07:57:01.779Z,25.37
2019-02-22T07:59:29.101Z,29.53
2019-02-22T08:01:56.427Z,25.63
2019-02-22T08:04:23.817Z,26.30
2019-02-22T08:06:51.895Z,30.23
2019-02-22T08:09:19.233Z,28.37
2019-02-22T08:11:47.522Z,28.93
2019-02-22T08:14:15.353Z,27.53
2019-02-22T08:16:42.684Z,23.43
2019-02-22T08:19:11.266Z,27.10
2019-02-22T08:21:38.670Z,27.47
2019-02-22T08:24:05.993Z,25.80
2019-02-22T08:26:33.324Z,26.87
2019-02-22T08:29:00.673Z,22.27
2019-02-22T08:31:28.008Z,28.40
2019-02-22T08:33:57.182Z,26.00
2019-02-22T08:36:24.713Z,27.53
2019-02-22T08:38:52.055Z,23.57
2019-02-22T08:41:19.426Z,22.27
2019-02-22T08:43:46.773Z,25.70
2019-02-22T08:46:14.133Z,30.83
2019-02-22T08:48:41.493Z,16.10
2019-02-22T08:51:08.833Z,30.93
2019-02-22T08:53:36.173Z,33.70
2019-02-22T08:56:03.494Z,30.80
2019-02-22T08:58:30.839Z,35.40
2019-02-22T09:00:58.216Z,30.37
2019-02-22T09:03:25.536Z,24.80
2019-02-22T09:05:52.894Z,32.00
2019-02-22T09:08:20.273Z,31.73
2019-02-22T09:10:59.667Z,32.10
2019-02-22T09:13:17.253Z,32.17
2019-02-22T09:15:44.615Z,30.33
2019-02-22T09:18:11.976Z,31.40
2019-02-22T09:20:39.332Z,32.20
2019-02-22T09:23:07.692Z,32.13
2019-02-22T09:25:35.352Z,33.97
2019-02-22T09:28:02.676Z,30.70
2019-02-22T09:30:30.033Z,30.23
2019-02-22T09:32:57.352Z,29.27
2019-02-22T09:35:24.736Z,28.27
2019-02-22T09:37:52.114Z,27.17
2019-02-22T09:40:19.424Z,27.47
2019-02-22T09:42:46.796Z,26.77
2019-02-22T09:45:14.148Z,25.33
2019-02-22T09:47:41.564Z,23.23
2019-02-22T09:50:10.195Z,22.30
2019-02-22T09:52:37.513Z,20.20
2019-02-22T09:55:06.773Z,19.47
2019-02-22T09:57:34.133Z,22.67
2019-02-22T10:00:01.454Z,23.43
2019-02-22T10:02:28.848Z,22.53
2019-02-22T10:04:56.198Z,21.70
2019-02-22T10:07:23.553Z,20.23
2019-02-22T10:09:50.953Z,19.60
2019-02-22T10:12:18.254Z,20.30
2019-02-22T10:14:45.614Z,19.97
2019-02-22T10:17:12.993Z,14.83
2019-02-22T10:19:40.317Z,19.00
2019-02-22T10:22:07.655Z,22.40
2019-02-22T10:24:35.013Z,21.67
2019-02-22T10:27:02.371Z,22.03
2019-02-22T10:29:29.774Z,21.30
2019-02-22T10:31:57.131Z,21.50
2019-02-22T10:34:24.477Z,21.37
2019-02-22T10:36:51.867Z,17.47
2019-02-22T10:39:19.207Z,13.00
2019-02-22T10:41:46.574Z,13.10
2019-02-22T10:44:17.684Z,12.97
2019-02-22T10:46:43.234Z,13.47
2019-02-22T10:49:10.616Z,12.37
2019-02-22T10:51:38.013Z,12.20
2019-02-22T10:54:05.375Z,10.67
2019-02-22T10:56:32.735Z,11.57
2019-02-22T10:59:00.155Z,12.13
2019-02-22T11:01:27.493Z,9.00
2019-02-22T11:03:56.825Z,9.83
2019-02-22T11:06:24.174Z,8.50
2019-02-22T11:08:51.495Z,9.27
2019-02-22T11:11:18.842Z,7.73
2019-02-22T11:13:46.216Z,9.10
2019-02-22T11:16:13.573Z,8.77
2019-02-22T11:18:40.915Z,8.23
2019-02-22T11:21:08.267Z,9.27
2019-02-22T11:23:35.618Z,9.27
2019-02-22T11:26:02.932Z,9.53
2019-02-22T11:28:30.279Z,9.10
2019-02-22T11:30:57.636Z,10.43
2019-02-22T11:33:25.827Z,9.50
2019-02-22T11:35:53.194Z,9.00
2019-02-22T11:38:20.573Z,7.40
2019-02-22T11:40:48.120Z,8.23
2019-02-22T11:43:15.487Z,8.57
2019-02-22T11:45:42.855Z,5.90
2019-02-22T11:48:10.216Z,4.70
2019-02-22T11:50:37.579Z,3.70
2019-02-22T11:53:05.115Z,2.97
2019-02-22T11:55:32.509Z,3.00
2019-02-22T11:57:59.881Z,2.70
2019-02-22T12:00:29.473Z,2.40
2019-02-22T12:02:56.815Z,2.20
2019-02-22T12:05:24.208Z,2.47
2019-02-22T12:07:51.619Z,1.80
2019-02-22T12:10:18.969Z,2.03
2019-02-22T12:12:46.389Z,1.30
2019-02-22T12:15:13.887Z,1.00
2019-02-22T12:17:41.312Z,1.30
2019-02-22T12:20:08.947Z,1.30
2019-02-22T12:22:36.353Z,2.37
2019-02-22T12:25:03.854Z,1.60
2019-02-22T12:27:31.298Z,1.30
2019-02-22T12:29:58.661Z,3.03
2019-02-22T12:32:26.037Z,5.67
2019-02-22T12:34:54.060Z,4.93
2019-02-22T12:37:21.525Z,4.87
2019-02-22T12:39:49.166Z,3.50
2019-02-22T12:42:16.513Z,3.80
2019-02-22T12:44:43.895Z,3.27
2019-02-22T12:47:11.333Z,2.47
2019-02-22T12:49:40.312Z,1.50
2019-02-22T12:52:07.828Z,1.60
2019-02-22T12:54:35.208Z,3.07
2019-02-22T12:57:02.611Z,2.30
2019-02-22T12:59:30.168Z,1.60
2019-02-22T13:01:57.550Z,1.07
2019-02-22T13:04:24.919Z,1.40
2019-02-22T13:06:52.369Z,1.20
2019-02-22T13:09:19.773Z,1.73
2019-02-22T13:11:47.352Z,5.23
2019-02-22T13:14:14.857Z,4.27
2019-02-22T13:16:42.395Z,3.80
2019-02-22T13:19:09.845Z,4.33
2019-02-22T13:21:37.380Z,2.50
2019-02-22T13:24:04.854Z,1.30
2019-02-22T13:26:32.318Z,1.00
2019-02-22T13:28:59.873Z,1.00
2019-02-22T13:31:30.364Z,0.90
2019-02-22T13:33:56.655Z,1.10
2019-02-22T13:36:24.245Z,1.20
2019-02-22T13:38:51.735Z,1.23
2019-02-22T13:41:19.279Z,1.60
2019-02-22T13:43:47.089Z,2.47
2019-02-22T13:46:15.911Z,11.37
2019-02-22T13:48:43.497Z,1.70
2019-02-22T13:51:11.032Z,1.23
2019-02-22T13:53:38.394Z,2.07
2019-02-22T13:56:05.770Z,4.87
2019-02-22T13:58:33.313Z,5.37
2019-02-22T14:01:00.948Z,4.63
2019-02-22T14:03:28.569Z,3.17
2019-02-22T14:05:56.179Z,3.50
2019-02-22T14:08:23.907Z,6.83
2019-02-22T14:10:51.514Z,8.80
2019-02-22T14:13:19.032Z,7.87
2019-02-22T14:15:46.802Z,8.50
2019-02-22T14:18:14.455Z,9.63
2019-02-22T14:20:42.087Z,7.00
2019-02-22T14:23:09.824Z,5.90
2019-02-22T14:25:37.514Z,6.57
2019-02-22T14:28:05.078Z,4.70
2019-02-22T14:30:32.635Z,3.37
2019-02-22T14:33:00.054Z,3.70
2019-02-22T14:35:27.668Z,3.53
2019-02-22T14:37:55.701Z,3.63
2019-02-22T14:40:23.667Z,3.13
2019-02-22T14:42:51.266Z,7.47
2019-02-22T14:45:19.023Z,10.23
2019-02-22T14:47:47.883Z,10.30
2019-02-22T14:50:16.744Z,14.40
2019-02-22T14:52:44.469Z,10.60
2019-02-22T14:55:12.221Z,6.13
2019-02-22T14:57:40.090Z,3.70
2019-02-22T15:00:11.213Z,3.60
2019-02-22T15:02:38.843Z,3.23
2019-02-22T15:05:09.160Z,14.47
2019-02-22T15:07:36.856Z,13.10
2019-02-22T15:10:05.353Z,16.87
2019-02-22T15:12:33.023Z,15.67
2019-02-22T15:15:00.701Z,16.93
2019-02-22T15:17:50.578Z,15.23
2019-02-22T15:20:18.215Z,15.33
2019-02-22T15:22:46.195Z,15.37
2019-02-22T15:25:13.993Z,19.73
2019-02-22T15:27:41.798Z,19.90
2019-02-22T15:30:09.805Z,22.13
2019-02-22T15:32:37.384Z,21.73
2019-02-22T15:35:07.207Z,21.33
2019-02-22T15:37:34.973Z,18.20
2019-02-22T15:40:02.903Z,16.03
2019-02-22T15:42:30.567Z,17.40
2019-02-22T15:44:58.341Z,23.10
2019-02-22T15:47:26.159Z,20.40
2019-02-22T15:49:54.020Z,19.93
2019-02-22T15:52:21.729Z,22.00
2019-02-22T15:54:50.472Z,20.77
2019-02-22T15:57:18.133Z,22.17
2019-02-22T15:59:45.984Z,22.07
2019-02-22T16:02:13.983Z,22.67
2019-02-22T16:04:48.451Z,21.37
2019-02-22T16:07:16.338Z,14.23
2019-02-22T16:09:44.133Z,9.53
2019-02-22T16:12:12.097Z,7.13
2019-02-22T16:14:40.070Z,6.67
2019-02-22T16:17:07.993Z,6.70
2019-02-22T16:19:35.828Z,5.60
2019-02-22T16:22:03.765Z,4.90
2019-02-22T16:24:31.551Z,4.20
2019-02-22T16:27:02.494Z,4.70
2019-02-22T16:29:31.816Z,5.23
2019-02-22T16:31:59.893Z,4.90
2019-02-22T16:34:27.991Z,11.33
2019-02-22T16:36:56.782Z,11.40
2019-02-22T16:39:24.820Z,8.83
2019-02-22T16:41:52.804Z,11.43
2019-02-22T16:44:20.826Z,11.53
2019-02-22T16:46:48.804Z,14.10
2019-02-22T16:49:16.996Z,9.50
2019-02-22T16:51:44.980Z,6.43
2019-02-22T16:54:12.888Z,5.10
2019-02-22T16:56:41.345Z,10.87
2019-02-22T16:59:09.301Z,5.30
2019-02-22T17:01:37.111Z,5.70
2019-02-22T17:04:05.218Z,6.13
2019-02-22T17:06:33.179Z,4.47
2019-02-22T17:09:01.146Z,5.40
2019-02-22T17:11:28.988Z,5.03
2019-02-22T17:13:57.077Z,5.07
2019-02-22T17:16:24.952Z,5.20
2019-02-22T17:18:52.855Z,5.57
2019-02-22T17:21:21.100Z,5.50
2019-02-22T17:23:49.993Z,7.00
2019-02-22T17:26:18.133Z,11.40
2019-02-22T17:28:46.172Z,14.27
2019-02-22T17:31:14.189Z,18.50
2019-02-22T17:33:42.547Z,16.67
2019-02-22T17:36:10.632Z,9.70
2019-02-22T17:38:38.637Z,7.20
2019-02-22T17:41:06.695Z,6.93
2019-02-22T17:43:34.688Z,8.13
2019-02-22T17:46:02.734Z,13.63
2019-02-22T17:48:30.724Z,23.03
2019-02-22T17:50:58.778Z,19.67
2019-02-22T17:53:26.727Z,14.93
2019-02-22T17:55:54.657Z,24.40
2019-02-22T17:58:24.699Z,24.67
2019-02-22T18:00:52.569Z,19.90
2019-02-22T18:03:20.422Z,13.60
2019-02-22T18:05:48.385Z,13.50
2019-02-22T18:08:16.009Z,14.00
2019-02-22T18:10:43.857Z,12.50
2019-02-22T18:13:11.810Z,12.60
2019-02-22T18:15:41.814Z,15.13
2019-02-22T18:18:09.760Z,15.50
2019-02-22T18:20:37.996Z,19.37
2019-02-22T18:23:05.934Z,20.20
2019-02-22T18:25:33.930Z,17.07
2019-02-22T18:28:01.766Z,14.03
2019-02-22T18:30:29.794Z,15.77
2019-02-22T18:32:57.609Z,10.93
2019-02-22T18:35:25.469Z,10.60
2019-02-22T18:37:53.637Z,14.23
2019-02-22T18:40:21.653Z,19.90
2019-02-22T18:42:49.593Z,19.93
2019-02-22T18:45:17.590Z,18.63
2019-02-22T18:47:45.574Z,14.40
2019-02-22T18:50:13.583Z,19.03
2019-02-22T18:52:41.453Z,23.70
2019-02-22T18:55:09.409Z,27.97
2019-02-22T18:57:37.356Z,30.70
2019-02-22T19:00:07.864Z,29.13
2019-02-22T19:02:36.579Z,23.30
2019-02-22T19:05:04.788Z,23.87
2019-02-22T19:07:34.010Z,23.07
2019-02-22T19:10:02.420Z,20.73
2019-02-22T19:12:30.372Z,14.77
2019-02-22T19:14:58.246Z,18.73
2019-02-22T19:17:30.332Z,20.87
2019-02-22T19:19:56.072Z,17.87
2019-02-22T19:22:24.036Z,14.10
2019-02-22T19:24:52.444Z,14.60
2019-02-22T19:27:20.401Z,15.77
2019-02-22T19:29:48.250Z,14.97
2019-02-22T19:32:16.283Z,15.20
2019-02-22T19:34:44.215Z,18.93
2019-02-22T19:37:12.063Z,23.17
2019-02-22T19:39:40.592Z,19.60
2019-02-22T19:42:08.609Z,13.63
2019-02-22T19:44:36.437Z,15.40
2019-02-22T19:47:04.463Z,16.63
2019-02-22T19:49:32.421Z,13.13
2019-02-22T19:52:00.999Z,11.87
2019-02-22T19:54:29.283Z,12.57
2019-02-22T19:56:57.237Z,13.53
2019-02-22T19:59:25.014Z,10.60
2019-02-22T20:01:53.084Z,10.47
2019-02-22T20:04:21.136Z,9.30
2019-02-22T20:06:51.494Z,11.43
2019-02-22T20:09:19.644Z,13.17
2019-02-22T20:11:49.967Z,13.73
2019-02-22T20:14:17.909Z,18.00
2019-02-22T20:16:45.803Z,16.70
2019-02-22T20:19:13.641Z,16.00
2019-02-22T20:21:41.659Z,19.87
2019-02-22T20:24:10.771Z,25.07
2019-02-22T20:26:38.814Z,19.50
2019-02-22T20:29:06.799Z,15.20
2019-02-22T20:31:34.745Z,12.93
2019-02-22T20:34:02.855Z,11.07
2019-02-22T20:36:30.804Z,12.00
2019-02-22T20:38:58.766Z,18.67
2019-02-22T20:41:27.212Z,18.47
2019-02-22T20:43:55.917Z,25.67
2019-02-22T20:46:23.841Z,29.53
2019-02-22T20:49:00.483Z,28.23
2019-02-22T20:51:22.549Z,22.60
2019-02-22T20:53:50.442Z,16.83
2019-02-22T20:56:18.430Z,34.17
2019-02-22T20:58:46.388Z,27.23
2019-02-22T21:01:15.167Z,26.80
2019-02-22T21:03:43.190Z,24.23
2019-02-22T21:06:12.325Z,23.67
2019-02-22T21:08:40.420Z,24.23
2019-02-22T21:11:08.511Z,24.70
2019-02-22T21:13:36.409Z,25.00
2019-02-22T21:16:04.294Z,24.50
2019-02-22T21:18:31.973Z,22.83
2019-02-22T21:20:59.922Z,21.33
2019-02-22T21:23:27.867Z,18.70
2019-02-22T21:25:55.854Z,26.10
2019-02-22T21:28:23.682Z,29.60
2019-02-22T21:30:51.695Z,30.30
2019-02-22T21:33:19.665Z,36.40
2019-02-22T21:35:47.499Z,41.73
2019-02-22T21:38:15.178Z,40.90
2019-02-22T21:40:42.991Z,40.97
2019-02-22T21:43:11.674Z,31.03
2019-02-22T21:45:39.569Z,33.23
2019-02-22T21:48:07.275Z,35.70
2019-02-22T21:50:35.015Z,34.17
2019-02-22T21:53:02.664Z,35.70
2019-02-22T21:55:30.485Z,36.10
2019-02-22T21:57:58.270Z,37.77
2019-02-22T22:00:26.113Z,36.80
2019-02-22T22:02:53.829Z,37.47
2019-02-22T22:05:21.395Z,34.13
2019-02-22T22:07:48.967Z,37.50
2019-02-22T22:10:16.517Z,35.97
2019-02-22T22:12:44.010Z,36.23
2019-02-22T22:15:11.978Z,33.53
2019-02-22T22:17:39.411Z,31.50
2019-02-22T22:20:06.968Z,29.43
2019-02-22T22:22:34.459Z,27.50
2019-02-22T22:25:01.892Z,29.23
2019-02-22T22:27:29.313Z,27.17
2019-02-22T22:29:56.675Z,28.83
2019-02-22T22:32:24.105Z,28.00
2019-02-22T22:34:51.450Z,26.37
2019-02-22T22:37:18.847Z,26.47
2019-02-22T22:39:46.274Z,24.53
2019-02-22T22:42:13.654Z,24.50
2019-02-22T22:44:41.158Z,22.80
2019-02-22T22:47:08.530Z,24.17
2019-02-22T22:49:35.909Z,23.40
2019-02-22T22:52:03.326Z,24.00
2019-02-22T22:54:30.664Z,27.10
2019-02-22T22:56:58.013Z,25.07
2019-02-22T22:59:25.393Z,23.83
2019-02-22T23:01:54.564Z,25.17
2019-02-22T23:04:21.918Z,22.40
2019-02-22T23:06:49.412Z,20.93
2019-02-22T23:09:18.620Z,19.07
2019-02-22T23:11:45.973Z,19.23
2019-02-22T23:14:13.325Z,17.80
2019-02-22T23:16:40.665Z,16.40
2019-02-22T23:19:08.025Z,17.77
2019-02-22T23:21:35.432Z,16.77
2019-02-22T23:24:02.776Z,16.47
2019-02-22T23:26:30.155Z,16.50
2019-02-22T23:28:57.592Z,13.87
2019-02-22T23:31:24.914Z,14.03
2019-02-22T23:33:52.252Z,14.13
2019-02-22T23:36:19.648Z,12.60
2019-02-22T23:38:47.028Z,10.43
2019-02-22T23:41:14.377Z,10.90
2019-02-22T23:43:41.774Z,11.40
2019-02-22T23:46:09.232Z,11.33
2019-02-22T23:48:36.592Z,12.37
2019-02-22T23:51:04.026Z,12.97
2019-02-22T23:53:31.373Z,12.47
2019-02-22T23:55:58.714Z,14.40
2019-02-22T23:58:26.088Z,16.80
